Cmb Ariane — VRIT7 — position and weather

sailwx.info

Track history (hours):
 
Tides and Currents Weather Stations Pressure Air Temp Water Temp Dewpoint Dewpoint Depression Visibility Wind Speed Wind Dir Waves Ship Positions

Cmb Ariane

Last reported at 2017-Feb-26 07:33 UTC. Time now 2017-Feb-27 00:04 UTC.
Position N 36°53' W 075°54'.

Length 180 m; draft 6.3 m.

Type: Cargo ship. MMSI: 477229600.

Date/timePositionNaut miles runAvg speedWind from/ knotsBaromVisibWave heightAir tempDewpointWater temp
2017-Feb-26 07:33N 36°53' W 075°54'1111.1
2017-Feb-26 06:33N 36°58' W 076°07'1110.8
2017-Feb-26 05:30N 36°56' W 076°20'3 3.1
2017-Feb-26 04:33N 36°53' W 076°20'0 0.0
2017-Feb-26 03:28N 36°53' W 076°20'0 0.0
2017-Feb-26 02:31N 36°53' W 076°20'0 0.0
2017-Feb-26 01:34N 36°53' W 076°20'0 0.0
2017-Feb-26 00:33N 36°53' W 076°20'0 0.0
2017-Feb-25 23:31N 36°53' W 076°20'0 0.0
2017-Feb-25 22:16N 36°53' W 076°20'0 0.0
2017-Feb-25 21:33N 36°53' W 076°20'0 0.0
2017-Feb-25 20:33N 36°53' W 076°20'0 0.0
2017-Feb-25 19:33N 36°53' W 076°20'0 0.0
2017-Feb-25 18:30N 36°53' W 076°20'0 0.0
2017-Feb-25 17:31N 36°53' W 076°20'0 0.0
2017-Feb-25 16:33N 36°53' W 076°20'0 0.0
2017-Feb-25 15:31N 36°53' W 076°20'0 0.0
2017-Feb-25 14:33N 36°53' W 076°20'0 0.0
2017-Feb-25 13:30N 36°53' W 076°20'0 0.0
2017-Feb-25 12:33N 36°53' W 076°20'0 0.0
2017-Feb-25 11:33N 36°53' W 076°20'0 0.0
2017-Feb-25 10:33N 36°53' W 076°20'0 0.0
2017-Feb-25 09:33N 36°53' W 076°20'0 0.0
2017-Feb-25 08:33N 36°53' W 076°20'0 0.0
2017-Feb-25 07:33N 36°53' W 076°20'0 0.0
2017-Feb-25 06:34N 36°53' W 076°20'0 0.0
2017-Feb-25 05:33N 36°53' W 076°20'0 0.0
2017-Feb-25 04:33N 36°53' W 076°20'0 0.0
2017-Feb-25 03:33N 36°53' W 076°20'0 0.0
2017-Feb-25 02:33N 36°53' W 076°20'0 0.0
2017-Feb-25 01:33N 36°53' W 076°20'0 0.0
2017-Feb-25 00:30N 36°53' W 076°20'3 2.7
2017-Feb-24 23:33N 36°55' W 076°20'10 9.6
2017-Feb-24 22:33N 36°59' W 076°09'1111.3
2017-Feb-24 21:33N 36°57' W 075°56'70 9.9
2017-Feb-24 14:32N 37°40' W 074°47'4912.2
2017-Feb-24 10:33N 38°28' W 074°45'1211.6
2017-Feb-24 09:33N 38°38' W 074°54'1010.1
2017-Feb-24 08:33N 38°46' W 075°02'1611.2
2017-Feb-24 07:08N 39°01' W 075°09'814.6
2017-Feb-24 06:33N 39°08' W 075°14'1615.8
2017-Feb-24 05:33N 39°21' W 075°26'1413.7
2017-Feb-24 04:33N 39°34' W 075°33'1212.1
2017-Feb-24 03:33N 39°45' W 075°29'10 9.6
2017-Feb-24 02:34N 39°51' W 075°19'8 8.1
2017-Feb-24 01:33N 39°53' W 075°09'2 2.0
2017-Feb-24 00:32N 39°55' W 075°08'0 0.0
2017-Feb-23 23:32N 39°55' W 075°08'0 0.0
2017-Feb-23 22:32N 39°55' W 075°08'0 0.0
2017-Feb-23 21:32N 39°55' W 075°08'0 0.0
2017-Feb-23 20:32N 39°55' W 075°08'0 0.0
2017-Feb-23 19:32N 39°55' W 075°08'0 0.0
2017-Feb-23 18:32N 39°55' W 075°08'0 0.0
2017-Feb-23 17:32N 39°55' W 075°08'0 0.0
2017-Feb-23 16:32N 39°55' W 075°08'0 0.0
2017-Feb-23 15:32N 39°55' W 075°08'0 0.0
2017-Feb-23 14:32N 39°55' W 075°08'0 0.0
2017-Feb-23 13:32N 39°55' W 075°08'0 0.0
2017-Feb-23 12:32N 39°55' W 075°08'0 0.0
2017-Feb-23 11:32N 39°55' W 075°08'0 0.0
2017-Feb-23 10:32N 39°55' W 075°08'0 0.0
2017-Feb-23 09:32N 39°55' W 075°08'0 0.0
2017-Feb-23 08:32N 39°55' W 075°08'0 0.0
2017-Feb-23 07:32N 39°55' W 075°08'0 0.0
2017-Feb-23 06:32N 39°55' W 075°08'0 0.0
2017-Feb-23 05:32N 39°55' W 075°08'0 0.0
2017-Feb-23 04:32N 39°55' W 075°08'0 0.0
2017-Feb-23 03:32N 39°55' W 075°08'0 0.0
2017-Feb-23 02:32N 39°55' W 075°08'0 0.0
2017-Feb-23 01:32N 39°55' W 075°08'0 0.0
2017-Feb-23 00:32N 39°55' W 075°08'0 0.0
2017-Feb-22 23:32N 39°55' W 075°08'0 0.0
2017-Feb-22 22:32N 39°55' W 075°08'0 0.0
2017-Feb-22 21:32N 39°55' W 075°08'0 0.0
2017-Feb-22 20:32N 39°55' W 075°08'0 0.0
2017-Feb-22 19:32N 39°55' W 075°08'0 0.0
2017-Feb-22 18:32N 39°55' W 075°08'0 0.0
2017-Feb-22 17:32N 39°55' W 075°08'0 0.0
2017-Feb-22 16:32N 39°55' W 075°08'0 0.0
2017-Feb-22 15:32N 39°55' W 075°08'0 0.0
2017-Feb-22 14:32N 39°55' W 075°08'0 0.0
2017-Feb-22 13:32N 39°55' W 075°08'0 0.0
2017-Feb-22 12:32N 39°55' W 075°08'0 0.0
2017-Feb-22 11:32N 39°55' W 075°08'0 0.0
2017-Feb-22 10:32N 39°55' W 075°08'0 0.0
2017-Feb-22 09:32N 39°55' W 075°08'0 0.0
2017-Feb-22 08:32N 39°55' W 075°08'0 0.0
2017-Feb-22 07:32N 39°55' W 075°08'0 0.0
2017-Feb-22 06:32N 39°55' W 075°08'0 0.0
2017-Feb-22 05:32N 39°55' W 075°08'0 0.0
2017-Feb-22 04:32N 39°55' W 075°08'0 0.0
2017-Feb-22 03:32N 39°55' W 075°08'0 0.0
2017-Feb-22 02:32N 39°55' W 075°08'0 0.0
2017-Feb-22 01:32N 39°55' W 075°08'0 0.0
2017-Feb-22 00:32N 39°55' W 075°08'0 0.0
2017-Feb-21 23:32N 39°55' W 075°08'0 0.0
2017-Feb-21 22:32N 39°55' W 075°08'0 0.0
2017-Feb-21 21:32N 39°55' W 075°08'0 0.0
2017-Feb-21 20:32N 39°55' W 075°08'0 0.0
2017-Feb-21 19:32N 39°55' W 075°08'0 0.0
2017-Feb-21 18:32N 39°55' W 075°08'0 0.0
2017-Feb-21 17:29N 39°55' W 075°08'0 0.0
2017-Feb-21 16:20N 39°55' W 075°08'0 0.0
2017-Feb-21 15:32N 39°55' W 075°08'0 0.0
2017-Feb-21 14:32N 39°55' W 075°08'0 0.0
2017-Feb-21 13:32N 39°55' W 075°08'0 0.0
2017-Feb-21 12:32N 39°55' W 075°08'0 0.0
2017-Feb-21 11:32N 39°55' W 075°08'0 0.0
2017-Feb-21 10:32N 39°55' W 075°08'0 0.0
2017-Feb-21 09:32N 39°55' W 075°08'0 0.0
2017-Feb-21 08:23N 39°55' W 075°08'0 0.0
2017-Feb-21 07:32N 39°55' W 075°08'0 0.0
2017-Feb-21 06:32N 39°55' W 075°08'0 0.0
2017-Feb-21 05:29N 39°55' W 075°08'0 0.0
2017-Feb-21 04:32N 39°55' W 075°08'0 0.0
2017-Feb-21 03:32N 39°55' W 075°08'0 0.0
2017-Feb-21 02:32N 39°55' W 075°08'0 0.0
2017-Feb-21 01:32N 39°55' W 075°08'0 0.0
2017-Feb-21 00:32N 39°55' W 075°08'0 0.0
2017-Feb-20 23:32N 39°55' W 075°08'0 0.0
2017-Feb-20 22:32N 39°55' W 075°08'0 0.0
2017-Feb-20 21:32N 39°55' W 075°08'0 0.0
2017-Feb-20 20:29N 39°55' W 075°08'0 0.0
2017-Feb-20 19:29N 39°55' W 075°08'0 0.0
2017-Feb-20 18:32N 39°55' W 075°08'0 0.0
2017-Feb-20 17:32N 39°55' W 075°08'0 0.0
2017-Feb-20 16:26N 39°55' W 075°08'0 0.0
2017-Feb-20 15:32N 39°55' W 075°08'0 0.0
2017-Feb-20 14:32N 39°55' W 075°08'0 0.0
2017-Feb-20 13:32N 39°55' W 075°08'0 0.0
2017-Feb-20 12:29N 39°55' W 075°08'0 0.0
2017-Feb-20 11:32N 39°55' W 075°08'0 0.0
2017-Feb-20 10:32N 39°55' W 075°08'0 0.0
2017-Feb-20 09:32N 39°55' W 075°08'0 0.0
2017-Feb-20 08:23N 39°55' W 075°08'0 0.0
2017-Feb-20 07:20N 39°55' W 075°08'0 0.0
2017-Feb-20 06:32N 39°55' W 075°08'0 0.0
2017-Feb-20 05:26N 39°55' W 075°08'0 0.0
2017-Feb-20 04:32N 39°55' W 075°08'0 0.0
2017-Feb-20 03:32N 39°55' W 075°08'0 0.0
2017-Feb-20 02:32N 39°55' W 075°08'0 0.0
2017-Feb-20 01:32N 39°55' W 075°08'0 0.0
2017-Feb-20 00:32N 39°55' W 075°08'0 0.0
2017-Feb-19 23:32N 39°55' W 075°08'0 0.0
2017-Feb-19 22:32N 39°55' W 075°08'0 0.0
2017-Feb-19 21:32N 39°55' W 075°08'0 0.0
2017-Feb-19 20:32N 39°55' W 075°08'0 0.0
2017-Feb-19 19:32N 39°55' W 075°08'0 0.0
2017-Feb-19 18:32N 39°55' W 075°08'0 0.0
2017-Feb-19 17:32N 39°55' W 075°08'0 0.0
2017-Feb-19 16:32N 39°55' W 075°08'0 0.0
2017-Feb-19 15:32N 39°55' W 075°08'0 0.0
2017-Feb-19 14:29N 39°55' W 075°08'0 0.0
2017-Feb-19 13:32N 39°55' W 075°08'0 0.0
2017-Feb-19 12:32N 39°55' W 075°08'0 0.0
2017-Feb-19 11:32N 39°55' W 075°08'0 0.0
2017-Feb-19 10:32N 39°55' W 075°08'0 0.0
2017-Feb-19 09:32N 39°55' W 075°08'0 0.0
2017-Feb-19 08:32N 39°55' W 075°08'0 0.0
2017-Feb-19 07:32N 39°55' W 075°08'0 0.0
2017-Feb-19 06:32N 39°55' W 075°08'0 0.0
2017-Feb-19 05:32N 39°55' W 075°08'0 0.0
2017-Feb-19 04:32N 39°55' W 075°08'0 0.0
2017-Feb-19 03:32N 39°55' W 075°08'0 0.0
2017-Feb-19 02:32N 39°55' W 075°08'0 0.0
2017-Feb-19 01:32N 39°55' W 075°08'0 0.0
2017-Feb-19 00:32N 39°55' W 075°08'0 0.0
2017-Feb-18 23:32N 39°55' W 075°08'0 0.0
2017-Feb-18 22:32N 39°55' W 075°08'0 0.0
2017-Feb-18 21:32N 39°55' W 075°08'0 0.0
2017-Feb-18 20:32N 39°55' W 075°08'0 0.0
2017-Feb-18 19:32N 39°55' W 075°08'0 0.0
2017-Feb-18 18:32N 39°55' W 075°08'0 0.0
2017-Feb-18 17:32N 39°55' W 075°08'0 0.0
2017-Feb-18 16:32N 39°55' W 075°08'0 0.0
2017-Feb-18 15:32N 39°55' W 075°08'0 0.0
2017-Feb-18 14:32N 39°55' W 075°08'0 0.0
2017-Feb-18 13:32N 39°55' W 075°08'0 0.0
2017-Feb-18 12:32N 39°55' W 075°08'0 0.0
2017-Feb-18 11:32N 39°55' W 075°08'0 0.0
2017-Feb-18 10:32N 39°55' W 075°08'0 0.0
2017-Feb-18 09:32N 39°55' W 075°08'0 0.0
2017-Feb-18 08:32N 39°55' W 075°08'0 0.0
2017-Feb-18 07:32N 39°55' W 075°08'0 0.0
2017-Feb-18 06:32N 39°55' W 075°08'0 0.0
2017-Feb-18 05:26N 39°55' W 075°08'0 0.0
2017-Feb-18 04:32N 39°55' W 075°08'0 0.0
2017-Feb-18 03:32N 39°55' W 075°08'0 0.0
2017-Feb-18 02:32N 39°55' W 075°08'0 0.0
2017-Feb-18 01:32N 39°55' W 075°08'0 0.0
2017-Feb-18 00:32N 39°55' W 075°08'0 0.0
2017-Feb-17 23:32N 39°55' W 075°08'0 0.0
2017-Feb-17 22:32N 39°55' W 075°08'0 0.0
2017-Feb-17 21:32N 39°55' W 075°08'0 0.0
2017-Feb-17 20:32N 39°55' W 075°08'0 0.0
2017-Feb-17 19:32N 39°55' W 075°08'0 0.0
2017-Feb-17 18:32N 39°55' W 075°08'0 0.0
2017-Feb-17 17:32N 39°55' W 075°08'0 0.0
2017-Feb-17 16:32N 39°55' W 075°08'0 0.0
2017-Feb-17 15:32N 39°55' W 075°08'0 0.0
2017-Feb-17 14:32N 39°55' W 075°08'0 0.0
2017-Feb-17 13:32N 39°55' W 075°08'0 0.0
2017-Feb-17 12:32N 39°55' W 075°08'0 0.0
2017-Feb-17 11:32N 39°55' W 075°08'0 0.0
2017-Feb-17 10:32N 39°55' W 075°08'0 0.0
2017-Feb-17 09:32N 39°55' W 075°08'0 0.0
2017-Feb-17 08:32N 39°55' W 075°08'0 0.0
2017-Feb-17 07:32N 39°55' W 075°08'3 3.2
2017-Feb-17 06:33N 39°53' W 075°11'2 2.2
2017-Feb-17 05:32N 39°52' W 075°13'0 0.1
2017-Feb-17 04:32N 39°52' W 075°14'0 0.0
2017-Feb-17 03:32N 39°52' W 075°14'0 0.0
2017-Feb-17 02:32N 39°52' W 075°14'0 0.0
2017-Feb-17 01:32N 39°52' W 075°14'0 0.1
2017-Feb-17 00:32N 39°52' W 075°13'0 0.1
2017-Feb-16 23:32N 39°52' W 075°13'0 0.1
2017-Feb-16 22:32N 39°52' W 075°13'0 0.0
2017-Feb-16 21:32N 39°52' W 075°13'0 0.0
2017-Feb-16 20:32N 39°52' W 075°13'0 0.0
2017-Feb-16 19:32N 39°52' W 075°13'0 0.0
2017-Feb-16 18:32N 39°52' W 075°13'0 0.0
2017-Feb-16 17:32N 39°52' W 075°13'0 0.0
2017-Feb-16 16:32N 39°52' W 075°13'0 0.1
2017-Feb-16 15:32N 39°52' W 075°13'0 0.1
2017-Feb-16 14:32N 39°52' W 075°14'0 0.0
2017-Feb-16 13:32N 39°52' W 075°13'0 0.0
2017-Feb-16 12:32N 39°52' W 075°13'0 0.1
2017-Feb-16 11:32N 39°52' W 075°13'0 0.0
2017-Feb-16 10:32N 39°52' W 075°13'0 0.0
2017-Feb-16 09:32N 39°52' W 075°13'0 0.0
2017-Feb-16 08:32N 39°52' W 075°13'  
Track history (hours):
 
Tides and Currents Weather Stations Pressure Air Temp Water Temp Dewpoint Dewpoint Depression Visibility Wind Speed Wind Dir Waves Ship Positions

Cmb Ariane

Last reported at 2017-Feb-26 07:33 UTC. Time now 2017-Feb-27 00:04 UTC.
Position N 36°53' W 075°54'.

Length 180 m; draft 6.3 m.

Type: Cargo ship. MMSI: 477229600.

Date/timePositionNaut miles runAvg speedWind from/ knotsBaromVisibWave heightAir tempDewpointWater temp
2017-Feb-26 07:33N 36°53' W 075°54'1111.1
2017-Feb-26 06:33N 36°58' W 076°07'1110.8
2017-Feb-26 05:30N 36°56' W 076°20'3 3.1
2017-Feb-26 04:33N 36°53' W 076°20'0 0.0
2017-Feb-26 03:28N 36°53' W 076°20'0 0.0
2017-Feb-26 02:31N 36°53' W 076°20'0 0.0
2017-Feb-26 01:34N 36°53' W 076°20'0 0.0
2017-Feb-26 00:33N 36°53' W 076°20'0 0.0
2017-Feb-25 23:31N 36°53' W 076°20'0 0.0
2017-Feb-25 22:16N 36°53' W 076°20'0 0.0
2017-Feb-25 21:33N 36°53' W 076°20'0 0.0
2017-Feb-25 20:33N 36°53' W 076°20'0 0.0
2017-Feb-25 19:33N 36°53' W 076°20'0 0.0
2017-Feb-25 18:30N 36°53' W 076°20'0 0.0
2017-Feb-25 17:31N 36°53' W 076°20'0 0.0
2017-Feb-25 16:33N 36°53' W 076°20'0 0.0
2017-Feb-25 15:31N 36°53' W 076°20'0 0.0
2017-Feb-25 14:33N 36°53' W 076°20'0 0.0
2017-Feb-25 13:30N 36°53' W 076°20'0 0.0
2017-Feb-25 12:33N 36°53' W 076°20'0 0.0
2017-Feb-25 11:33N 36°53' W 076°20'0 0.0
2017-Feb-25 10:33N 36°53' W 076°20'0 0.0
2017-Feb-25 09:33N 36°53' W 076°20'0 0.0
2017-Feb-25 08:33N 36°53' W 076°20'0 0.0
2017-Feb-25 07:33N 36°53' W 076°20'0 0.0
2017-Feb-25 06:34N 36°53' W 076°20'0 0.0
2017-Feb-25 05:33N 36°53' W 076°20'0 0.0
2017-Feb-25 04:33N 36°53' W 076°20'0 0.0
2017-Feb-25 03:33N 36°53' W 076°20'0 0.0
2017-Feb-25 02:33N 36°53' W 076°20'0 0.0
2017-Feb-25 01:33N 36°53' W 076°20'0 0.0
2017-Feb-25 00:30N 36°53' W 076°20'3 2.7
2017-Feb-24 23:33N 36°55' W 076°20'10 9.6
2017-Feb-24 22:33N 36°59' W 076°09'1111.3
2017-Feb-24 21:33N 36°57' W 075°56'70 9.9
2017-Feb-24 14:32N 37°40' W 074°47'4912.2
2017-Feb-24 10:33N 38°28' W 074°45'1211.6
2017-Feb-24 09:33N 38°38' W 074°54'1010.1
2017-Feb-24 08:33N 38°46' W 075°02'1611.2
2017-Feb-24 07:08N 39°01' W 075°09'814.6
2017-Feb-24 06:33N 39°08' W 075°14'1615.8
2017-Feb-24 05:33N 39°21' W 075°26'1413.7
2017-Feb-24 04:33N 39°34' W 075°33'1212.1
2017-Feb-24 03:33N 39°45' W 075°29'10 9.6
2017-Feb-24 02:34N 39°51' W 075°19'8 8.1
2017-Feb-24 01:33N 39°53' W 075°09'2 2.0
2017-Feb-24 00:32N 39°55' W 075°08'0 0.0
2017-Feb-23 23:32N 39°55' W 075°08'0 0.0
2017-Feb-23 22:32N 39°55' W 075°08'0 0.0
2017-Feb-23 21:32N 39°55' W 075°08'0 0.0
2017-Feb-23 20:32N 39°55' W 075°08'0 0.0
2017-Feb-23 19:32N 39°55' W 075°08'0 0.0
2017-Feb-23 18:32N 39°55' W 075°08'0 0.0
2017-Feb-23 17:32N 39°55' W 075°08'0 0.0
2017-Feb-23 16:32N 39°55' W 075°08'0 0.0
2017-Feb-23 15:32N 39°55' W 075°08'0 0.0
2017-Feb-23 14:32N 39°55' W 075°08'0 0.0
2017-Feb-23 13:32N 39°55' W 075°08'0 0.0
2017-Feb-23 12:32N 39°55' W 075°08'0 0.0
2017-Feb-23 11:32N 39°55' W 075°08'0 0.0
2017-Feb-23 10:32N 39°55' W 075°08'0 0.0
2017-Feb-23 09:32N 39°55' W 075°08'0 0.0
2017-Feb-23 08:32N 39°55' W 075°08'0 0.0
2017-Feb-23 07:32N 39°55' W 075°08'0 0.0
2017-Feb-23 06:32N 39°55' W 075°08'0 0.0
2017-Feb-23 05:32N 39°55' W 075°08'0 0.0
2017-Feb-23 04:32N 39°55' W 075°08'0 0.0
2017-Feb-23 03:32N 39°55' W 075°08'0 0.0
2017-Feb-23 02:32N 39°55' W 075°08'0 0.0
2017-Feb-23 01:32N 39°55' W 075°08'0 0.0
2017-Feb-23 00:32N 39°55' W 075°08'0 0.0
2017-Feb-22 23:32N 39°55' W 075°08'0 0.0
2017-Feb-22 22:32N 39°55' W 075°08'0 0.0
2017-Feb-22 21:32N 39°55' W 075°08'0 0.0
2017-Feb-22 20:32N 39°55' W 075°08'0 0.0
2017-Feb-22 19:32N 39°55' W 075°08'0 0.0
2017-Feb-22 18:32N 39°55' W 075°08'0 0.0
2017-Feb-22 17:32N 39°55' W 075°08'0 0.0
2017-Feb-22 16:32N 39°55' W 075°08'0 0.0
2017-Feb-22 15:32N 39°55' W 075°08'0 0.0
2017-Feb-22 14:32N 39°55' W 075°08'0 0.0
2017-Feb-22 13:32N 39°55' W 075°08'0 0.0
2017-Feb-22 12:32N 39°55' W 075°08'0 0.0
2017-Feb-22 11:32N 39°55' W 075°08'0 0.0
2017-Feb-22 10:32N 39°55' W 075°08'0 0.0
2017-Feb-22 09:32N 39°55' W 075°08'0 0.0
2017-Feb-22 08:32N 39°55' W 075°08'0 0.0
2017-Feb-22 07:32N 39°55' W 075°08'0 0.0
2017-Feb-22 06:32N 39°55' W 075°08'0 0.0
2017-Feb-22 05:32N 39°55' W 075°08'0 0.0
2017-Feb-22 04:32N 39°55' W 075°08'0 0.0
2017-Feb-22 03:32N 39°55' W 075°08'0 0.0
2017-Feb-22 02:32N 39°55' W 075°08'0 0.0
2017-Feb-22 01:32N 39°55' W 075°08'0 0.0
2017-Feb-22 00:32N 39°55' W 075°08'0 0.0
2017-Feb-21 23:32N 39°55' W 075°08'0 0.0
2017-Feb-21 22:32N 39°55' W 075°08'0 0.0
2017-Feb-21 21:32N 39°55' W 075°08'0 0.0
2017-Feb-21 20:32N 39°55' W 075°08'0 0.0
2017-Feb-21 19:32N 39°55' W 075°08'0 0.0
2017-Feb-21 18:32N 39°55' W 075°08'0 0.0
2017-Feb-21 17:29N 39°55' W 075°08'0 0.0
2017-Feb-21 16:20N 39°55' W 075°08'0 0.0
2017-Feb-21 15:32N 39°55' W 075°08'0 0.0
2017-Feb-21 14:32N 39°55' W 075°08'0 0.0
2017-Feb-21 13:32N 39°55' W 075°08'0 0.0
2017-Feb-21 12:32N 39°55' W 075°08'0 0.0
2017-Feb-21 11:32N 39°55' W 075°08'0 0.0
2017-Feb-21 10:32N 39°55' W 075°08'0 0.0
2017-Feb-21 09:32N 39°55' W 075°08'0 0.0
2017-Feb-21 08:23N 39°55' W 075°08'0 0.0
2017-Feb-21 07:32N 39°55' W 075°08'0 0.0
2017-Feb-21 06:32N 39°55' W 075°08'0 0.0
2017-Feb-21 05:29N 39°55' W 075°08'0 0.0
2017-Feb-21 04:32N 39°55' W 075°08'0 0.0
2017-Feb-21 03:32N 39°55' W 075°08'0 0.0
2017-Feb-21 02:32N 39°55' W 075°08'0 0.0
2017-Feb-21 01:32N 39°55' W 075°08'0 0.0
2017-Feb-21 00:32N 39°55' W 075°08'0 0.0
2017-Feb-20 23:32N 39°55' W 075°08'0 0.0
2017-Feb-20 22:32N 39°55' W 075°08'0 0.0
2017-Feb-20 21:32N 39°55' W 075°08'0 0.0
2017-Feb-20 20:29N 39°55' W 075°08'0 0.0
2017-Feb-20 19:29N 39°55' W 075°08'0 0.0
2017-Feb-20 18:32N 39°55' W 075°08'0 0.0
2017-Feb-20 17:32N 39°55' W 075°08'0 0.0
2017-Feb-20 16:26N 39°55' W 075°08'0 0.0
2017-Feb-20 15:32N 39°55' W 075°08'0 0.0
2017-Feb-20 14:32N 39°55' W 075°08'0 0.0
2017-Feb-20 13:32N 39°55' W 075°08'0 0.0
2017-Feb-20 12:29N 39°55' W 075°08'0 0.0
2017-Feb-20 11:32N 39°55' W 075°08'0 0.0
2017-Feb-20 10:32N 39°55' W 075°08'0 0.0
2017-Feb-20 09:32N 39°55' W 075°08'0 0.0
2017-Feb-20 08:23N 39°55' W 075°08'0 0.0
2017-Feb-20 07:20N 39°55' W 075°08'0 0.0
2017-Feb-20 06:32N 39°55' W 075°08'0 0.0
2017-Feb-20 05:26N 39°55' W 075°08'0 0.0
2017-Feb-20 04:32N 39°55' W 075°08'0 0.0
2017-Feb-20 03:32N 39°55' W 075°08'0 0.0
2017-Feb-20 02:32N 39°55' W 075°08'0 0.0
2017-Feb-20 01:32N 39°55' W 075°08'0 0.0
2017-Feb-20 00:32N 39°55' W 075°08'0 0.0
2017-Feb-19 23:32N 39°55' W 075°08'0 0.0
2017-Feb-19 22:32N 39°55' W 075°08'0 0.0
2017-Feb-19 21:32N 39°55' W 075°08'0 0.0
2017-Feb-19 20:32N 39°55' W 075°08'0 0.0
2017-Feb-19 19:32N 39°55' W 075°08'0 0.0
2017-Feb-19 18:32N 39°55' W 075°08'0 0.0
2017-Feb-19 17:32N 39°55' W 075°08'0 0.0
2017-Feb-19 16:32N 39°55' W 075°08'0 0.0
2017-Feb-19 15:32N 39°55' W 075°08'0 0.0
2017-Feb-19 14:29N 39°55' W 075°08'0 0.0
2017-Feb-19 13:32N 39°55' W 075°08'0 0.0
2017-Feb-19 12:32N 39°55' W 075°08'0 0.0
2017-Feb-19 11:32N 39°55' W 075°08'0 0.0
2017-Feb-19 10:32N 39°55' W 075°08'0 0.0
2017-Feb-19 09:32N 39°55' W 075°08'0 0.0
2017-Feb-19 08:32N 39°55' W 075°08'0 0.0
2017-Feb-19 07:32N 39°55' W 075°08'0 0.0
2017-Feb-19 06:32N 39°55' W 075°08'0 0.0
2017-Feb-19 05:32N 39°55' W 075°08'0 0.0
2017-Feb-19 04:32N 39°55' W 075°08'0 0.0
2017-Feb-19 03:32N 39°55' W 075°08'0 0.0
2017-Feb-19 02:32N 39°55' W 075°08'0 0.0
2017-Feb-19 01:32N 39°55' W 075°08'0 0.0
2017-Feb-19 00:32N 39°55' W 075°08'0 0.0
2017-Feb-18 23:32N 39°55' W 075°08'0 0.0
2017-Feb-18 22:32N 39°55' W 075°08'0 0.0
2017-Feb-18 21:32N 39°55' W 075°08'0 0.0
2017-Feb-18 20:32N 39°55' W 075°08'0 0.0
2017-Feb-18 19:32N 39°55' W 075°08'0 0.0
2017-Feb-18 18:32N 39°55' W 075°08'0 0.0
2017-Feb-18 17:32N 39°55' W 075°08'0 0.0
2017-Feb-18 16:32N 39°55' W 075°08'0 0.0
2017-Feb-18 15:32N 39°55' W 075°08'0 0.0
2017-Feb-18 14:32N 39°55' W 075°08'0 0.0
2017-Feb-18 13:32N 39°55' W 075°08'0 0.0
2017-Feb-18 12:32N 39°55' W 075°08'0 0.0
2017-Feb-18 11:32N 39°55' W 075°08'0 0.0
2017-Feb-18 10:32N 39°55' W 075°08'0 0.0
2017-Feb-18 09:32N 39°55' W 075°08'0 0.0
2017-Feb-18 08:32N 39°55' W 075°08'0 0.0
2017-Feb-18 07:32N 39°55' W 075°08'0 0.0
2017-Feb-18 06:32N 39°55' W 075°08'0 0.0
2017-Feb-18 05:26N 39°55' W 075°08'0 0.0
2017-Feb-18 04:32N 39°55' W 075°08'0 0.0
2017-Feb-18 03:32N 39°55' W 075°08'0 0.0
2017-Feb-18 02:32N 39°55' W 075°08'0 0.0
2017-Feb-18 01:32N 39°55' W 075°08'0 0.0
2017-Feb-18 00:32N 39°55' W 075°08'0 0.0
2017-Feb-17 23:32N 39°55' W 075°08'0 0.0
2017-Feb-17 22:32N 39°55' W 075°08'0 0.0
2017-Feb-17 21:32N 39°55' W 075°08'0 0.0
2017-Feb-17 20:32N 39°55' W 075°08'0 0.0
2017-Feb-17 19:32N 39°55' W 075°08'0 0.0
2017-Feb-17 18:32N 39°55' W 075°08'0 0.0
2017-Feb-17 17:32N 39°55' W 075°08'0 0.0
2017-Feb-17 16:32N 39°55' W 075°08'0 0.0
2017-Feb-17 15:32N 39°55' W 075°08'0 0.0
2017-Feb-17 14:32N 39°55' W 075°08'0 0.0
2017-Feb-17 13:32N 39°55' W 075°08'0 0.0
2017-Feb-17 12:32N 39°55' W 075°08'0 0.0
2017-Feb-17 11:32N 39°55' W 075°08'0 0.0
2017-Feb-17 10:32N 39°55' W 075°08'0 0.0
2017-Feb-17 09:32N 39°55' W 075°08'0 0.0
2017-Feb-17 08:32N 39°55' W 075°08'0 0.0
2017-Feb-17 07:32N 39°55' W 075°08'3 3.2
2017-Feb-17 06:33N 39°53' W 075°11'2 2.2
2017-Feb-17 05:32N 39°52' W 075°13'0 0.1
2017-Feb-17 04:32N 39°52' W 075°14'0 0.0
2017-Feb-17 03:32N 39°52' W 075°14'0 0.0
2017-Feb-17 02:32N 39°52' W 075°14'0 0.0
2017-Feb-17 01:32N 39°52' W 075°14'0 0.1
2017-Feb-17 00:32N 39°52' W 075°13'0 0.1
2017-Feb-16 23:32N 39°52' W 075°13'0 0.1
2017-Feb-16 22:32N 39°52' W 075°13'0 0.0
2017-Feb-16 21:32N 39°52' W 075°13'0 0.0
2017-Feb-16 20:32N 39°52' W 075°13'0 0.0
2017-Feb-16 19:32N 39°52' W 075°13'0 0.0
2017-Feb-16 18:32N 39°52' W 075°13'0 0.0
2017-Feb-16 17:32N 39°52' W 075°13'0 0.0
2017-Feb-16 16:32N 39°52' W 075°13'0 0.1
2017-Feb-16 15:32N 39°52' W 075°13'0 0.1
2017-Feb-16 14:32N 39°52' W 075°14'0 0.0
2017-Feb-16 13:32N 39°52' W 075°13'0 0.0
2017-Feb-16 12:32N 39°52' W 075°13'0 0.1
2017-Feb-16 11:32N 39°52' W 075°13'0 0.0
2017-Feb-16 10:32N 39°52' W 075°13'0 0.0
2017-Feb-16 09:32N 39°52' W 075°13'0 0.0
2017-Feb-16 08:32N 39°52' W 075°13'  

Dump ship's entire track history